sensor_id;sensor_type;location;lat;lon;timestamp;P1;durP1;ratioP1;P2;durP2;ratioP2
9409;SDS011;4744;52.576;13.568;2023-03-19T00:02:01;10.70;;;8.93;;
9409;SDS011;4744;52.576;13.568;2023-03-19T00:04:28;9.38;;;8.45;;
9409;SDS011;4744;52.576;13.568;2023-03-19T00:06:56;11.18;;;8.98;;
9409;SDS011;4744;52.576;13.568;2023-03-19T00:09:23;9.50;;;8.48;;
9409;SDS011;4744;52.576;13.568;2023-03-19T00:11:51;12.50;;;9.27;;
9409;SDS011;4744;52.576;13.568;2023-03-19T00:14:18;10.30;;;8.88;;
9409;SDS011;4744;52.576;13.568;2023-03-19T00:16:45;10.85;;;9.25;;
9409;SDS011;4744;52.576;13.568;2023-03-19T00:19:12;9.63;;;8.63;;
9409;SDS011;4744;52.576;13.568;2023-03-19T00:21:39;11.00;;;9.30;;
9409;SDS011;4744;52.576;13.568;2023-03-19T00:24:08;10.63;;;8.80;;
9409;SDS011;4744;52.576;13.568;2023-03-19T00:26:35;10.23;;;8.85;;
9409;SDS011;4744;52.576;13.568;2023-03-19T00:29:02;10.70;;;9.45;;
9409;SDS011;4744;52.576;13.568;2023-03-19T00:31:30;10.70;;;8.38;;
9409;SDS011;4744;52.576;13.568;2023-03-19T00:33:57;10.25;;;9.00;;
9409;SDS011;4744;52.576;13.568;2023-03-19T00:36:25;11.10;;;9.20;;
9409;SDS011;4744;52.576;13.568;2023-03-19T00:38:54;9.90;;;8.60;;
9409;SDS011;4744;52.576;13.568;2023-03-19T00:41:22;9.55;;;8.15;;
9409;SDS011;4744;52.576;13.568;2023-03-19T00:43:54;9.30;;;8.27;;
9409;SDS011;4744;52.576;13.568;2023-03-19T00:46:22;11.48;;;8.52;;
9409;SDS011;4744;52.576;13.568;2023-03-19T00:48:50;10.27;;;8.15;;
9409;SDS011;4744;52.576;13.568;2023-03-19T00:51:19;9.65;;;7.53;;
9409;SDS011;4744;52.576;13.568;2023-03-19T00:53:47;9.82;;;8.05;;
9409;SDS011;4744;52.576;13.568;2023-03-19T00:56:15;8.48;;;7.57;;
9409;SDS011;4744;52.576;13.568;2023-03-19T00:58:44;10.35;;;8.70;;
9409;SDS011;4744;52.576;13.568;2023-03-19T01:01:12;10.10;;;8.55;;
9409;SDS011;4744;52.576;13.568;2023-03-19T01:03:41;10.07;;;8.20;;
9409;SDS011;4744;52.576;13.568;2023-03-19T01:06:08;9.93;;;8.82;;
9409;SDS011;4744;52.576;13.568;2023-03-19T01:08:35;8.68;;;7.88;;
9409;SDS011;4744;52.576;13.568;2023-03-19T01:11:06;8.82;;;7.93;;
9409;SDS011;4744;52.576;13.568;2023-03-19T01:13:33;12.57;;;9.15;;
9409;SDS011;4744;52.576;13.568;2023-03-19T01:16:02;11.48;;;8.98;;
9409;SDS011;4744;52.576;13.568;2023-03-19T01:18:29;11.75;;;9.05;;
9409;SDS011;4744;52.576;13.568;2023-03-19T01:20:57;10.20;;;8.77;;
9409;SDS011;4744;52.576;13.568;2023-03-19T01:23:24;17.00;;;9.55;;
9409;SDS011;4744;52.576;13.568;2023-03-19T01:25:53;13.18;;;9.57;;
9409;SDS011;4744;52.576;13.568;2023-03-19T01:28:21;10.98;;;8.52;;
9409;SDS011;4744;52.576;13.568;2023-03-19T01:30:48;12.20;;;8.77;;
9409;SDS011;4744;52.576;13.568;2023-03-19T01:33:16;9.57;;;8.25;;
9409;SDS011;4744;52.576;13.568;2023-03-19T01:35:44;12.32;;;8.50;;
9409;SDS011;4744;52.576;13.568;2023-03-19T01:38:13;9.80;;;8.52;;
9409;SDS011;4744;52.576;13.568;2023-03-19T01:40:43;9.52;;;8.52;;
9409;SDS011;4744;52.576;13.568;2023-03-19T01:43:12;8.18;;;7.38;;
9409;SDS011;4744;52.576;13.568;2023-03-19T01:45:43;8.48;;;7.53;;
9409;SDS011;4744;52.576;13.568;2023-03-19T01:48:18;9.23;;;8.13;;
9409;SDS011;4744;52.576;13.568;2023-03-19T01:50:50;9.80;;;7.63;;
9409;SDS011;4744;52.576;13.568;2023-03-19T01:53:20;8.13;;;7.32;;
9409;SDS011;4744;52.576;13.568;2023-03-19T01:55:51;8.75;;;7.65;;
9409;SDS011;4744;52.576;13.568;2023-03-19T01:58:22;9.07;;;7.90;;
9409;SDS011;4744;52.576;13.568;2023-03-19T02:00:50;8.80;;;7.65;;
9409;SDS011;4744;52.576;13.568;2023-03-19T02:03:19;9.88;;;7.88;;
9409;SDS011;4744;52.576;13.568;2023-03-19T02:05:46;8.65;;;7.75;;
9409;SDS011;4744;52.576;13.568;2023-03-19T02:08:16;9.43;;;7.78;;
9409;SDS011;4744;52.576;13.568;2023-03-19T02:10:46;8.77;;;7.88;;
9409;SDS011;4744;52.576;13.568;2023-03-19T02:13:14;9.27;;;8.27;;
9409;SDS011;4744;52.576;13.568;2023-03-19T02:15:41;10.02;;;8.52;;
9409;SDS011;4744;52.576;13.568;2023-03-19T02:18:08;9.98;;;7.78;;
9409;SDS011;4744;52.576;13.568;2023-03-19T02:20:39;11.20;;;8.85;;
9409;SDS011;4744;52.576;13.568;2023-03-19T02:23:13;10.48;;;8.52;;
9409;SDS011;4744;52.576;13.568;2023-03-19T02:28:37;10.50;;;9.27;;
9409;SDS011;4744;52.576;13.568;2023-03-19T02:31:08;10.50;;;8.93;;
9409;SDS011;4744;52.576;13.568;2023-03-19T02:33:36;10.68;;;8.90;;
9409;SDS011;4744;52.576;13.568;2023-03-19T02:36:04;9.77;;;8.63;;
9409;SDS011;4744;52.576;13.568;2023-03-19T02:38:34;10.35;;;8.95;;
9409;SDS011;4744;52.576;13.568;2023-03-19T02:41:05;10.20;;;8.63;;
9409;SDS011;4744;52.576;13.568;2023-03-19T02:43:35;9.40;;;8.25;;
9409;SDS011;4744;52.576;13.568;2023-03-19T02:46:04;11.07;;;8.68;;
9409;SDS011;4744;52.576;13.568;2023-03-19T02:48:33;9.93;;;8.85;;
9409;SDS011;4744;52.576;13.568;2023-03-19T02:51:00;9.18;;;8.23;;
9409;SDS011;4744;52.576;13.568;2023-03-19T02:53:27;10.07;;;8.98;;
9409;SDS011;4744;52.576;13.568;2023-03-19T02:55:54;9.27;;;8.32;;
9409;SDS011;4744;52.576;13.568;2023-03-19T02:58:21;8.95;;;8.05;;
9409;SDS011;4744;52.576;13.568;2023-03-19T03:00:49;12.70;;;8.40;;
9409;SDS011;4744;52.576;13.568;2023-03-19T03:03:17;9.65;;;8.30;;
9409;SDS011;4744;52.576;13.568;2023-03-19T03:05:43;14.60;;;7.78;;
9409;SDS011;4744;52.576;13.568;2023-03-19T03:08:11;12.27;;;8.48;;
9409;SDS011;4744;52.576;13.568;2023-03-19T03:10:38;9.77;;;8.77;;
9409;SDS011;4744;52.576;13.568;2023-03-19T03:13:04;9.68;;;8.68;;
9409;SDS011;4744;52.576;13.568;2023-03-19T03:15:31;8.77;;;7.95;;
9409;SDS011;4744;52.576;13.568;2023-03-19T03:18:00;9.25;;;8.27;;
9409;SDS011;4744;52.576;13.568;2023-03-19T03:20:27;9.48;;;8.15;;
9409;SDS011;4744;52.576;13.568;2023-03-19T03:22:54;10.20;;;8.27;;
9409;SDS011;4744;52.576;13.568;2023-03-19T03:25:21;10.07;;;8.73;;
9409;SDS011;4744;52.576;13.568;2023-03-19T03:27:48;9.05;;;8.15;;
9409;SDS011;4744;52.576;13.568;2023-03-19T03:30:16;8.43;;;7.53;;
9409;SDS011;4744;52.576;13.568;2023-03-19T03:32:43;11.35;;;8.90;;
9409;SDS011;4744;52.576;13.568;2023-03-19T03:35:11;9.77;;;8.63;;
9409;SDS011;4744;52.576;13.568;2023-03-19T03:37:42;13.10;;;8.57;;
9409;SDS011;4744;52.576;13.568;2023-03-19T03:40:09;11.40;;;8.40;;
9409;SDS011;4744;52.576;13.568;2023-03-19T03:42:38;12.85;;;8.88;;
9409;SDS011;4744;52.576;13.568;2023-03-19T03:45:06;9.05;;;7.95;;
9409;SDS011;4744;52.576;13.568;2023-03-19T03:47:34;9.68;;;8.68;;
9409;SDS011;4744;52.576;13.568;2023-03-19T03:50:02;9.30;;;8.32;;
9409;SDS011;4744;52.576;13.568;2023-03-19T03:52:31;12.10;;;8.30;;
9409;SDS011;4744;52.576;13.568;2023-03-19T03:54:58;9.27;;;8.27;;
9409;SDS011;4744;52.576;13.568;2023-03-19T03:57:25;9.00;;;7.75;;
9409;SDS011;4744;52.576;13.568;2023-03-19T03:59:52;8.32;;;7.40;;
9409;SDS011;4744;52.576;13.568;2023-03-19T04:02:19;7.90;;;7.10;;
9409;SDS011;4744;52.576;13.568;2023-03-19T04:04:46;8.40;;;7.57;;
9409;SDS011;4744;52.576;13.568;2023-03-19T04:07:13;9.23;;;7.55;;
9409;SDS011;4744;52.576;13.568;2023-03-19T04:09:42;8.00;;;7.20;;
9409;SDS011;4744;52.576;13.568;2023-03-19T04:12:10;7.18;;;6.47;;
9409;SDS011;4744;52.576;13.568;2023-03-19T04:14:37;9.85;;;8.07;;
9409;SDS011;4744;52.576;13.568;2023-03-19T04:17:04;10.70;;;8.73;;
9409;SDS011;4744;52.576;13.568;2023-03-19T04:19:31;7.78;;;6.85;;
9409;SDS011;4744;52.576;13.568;2023-03-19T04:21:58;8.50;;;7.65;;
9409;SDS011;4744;52.576;13.568;2023-03-19T04:24:27;8.00;;;7.10;;
9409;SDS011;4744;52.576;13.568;2023-03-19T04:26:56;10.25;;;8.40;;
9409;SDS011;4744;52.576;13.568;2023-03-19T04:29:23;10.25;;;8.13;;
9409;SDS011;4744;52.576;13.568;2023-03-19T04:31:50;9.05;;;7.55;;
9409;SDS011;4744;52.576;13.568;2023-03-19T04:34:20;10.05;;;8.20;;
9409;SDS011;4744;52.576;13.568;2023-03-19T04:36:47;8.55;;;7.65;;
9409;SDS011;4744;52.576;13.568;2023-03-19T04:39:14;7.60;;;6.72;;
9409;SDS011;4744;52.576;13.568;2023-03-19T04:41:41;8.07;;;6.78;;
9409;SDS011;4744;52.576;13.568;2023-03-19T04:44:09;8.85;;;7.95;;
9409;SDS011;4744;52.576;13.568;2023-03-19T04:46:36;9.25;;;8.35;;
9409;SDS011;4744;52.576;13.568;2023-03-19T04:49:03;9.60;;;7.95;;
9409;SDS011;4744;52.576;13.568;2023-03-19T04:51:30;8.27;;;7.47;;
9409;SDS011;4744;52.576;13.568;2023-03-19T04:53:57;9.07;;;8.13;;
9409;SDS011;4744;52.576;13.568;2023-03-19T04:56:24;8.57;;;7.68;;
9409;SDS011;4744;52.576;13.568;2023-03-19T04:58:51;7.88;;;7.07;;
9409;SDS011;4744;52.576;13.568;2023-03-19T05:01:20;8.43;;;7.05;;
9409;SDS011;4744;52.576;13.568;2023-03-19T05:03:47;8.35;;;7.35;;
9409;SDS011;4744;52.576;13.568;2023-03-19T05:06:13;10.00;;;7.93;;
9409;SDS011;4744;52.576;13.568;2023-03-19T05:08:41;8.23;;;7.43;;
9409;SDS011;4744;52.576;13.568;2023-03-19T05:11:08;9.05;;;7.47;;
9409;SDS011;4744;52.576;13.568;2023-03-19T05:13:34;8.80;;;7.47;;
9409;SDS011;4744;52.576;13.568;2023-03-19T05:16:01;9.02;;;7.95;;
9409;SDS011;4744;52.576;13.568;2023-03-19T05:18:30;7.47;;;6.78;;
9409;SDS011;4744;52.576;13.568;2023-03-19T05:20:57;8.38;;;7.25;;
9409;SDS011;4744;52.576;13.568;2023-03-19T05:23:24;8.48;;;7.60;;
9409;SDS011;4744;52.576;13.568;2023-03-19T05:25:51;11.57;;;8.52;;
9409;SDS011;4744;52.576;13.568;2023-03-19T05:28:18;10.80;;;8.50;;
9409;SDS011;4744;52.576;13.568;2023-03-19T05:30:45;9.10;;;7.38;;
9409;SDS011;4744;52.576;13.568;2023-03-19T05:33:12;9.10;;;7.40;;
9409;SDS011;4744;52.576;13.568;2023-03-19T05:35:40;10.13;;;8.60;;
9409;SDS011;4744;52.576;13.568;2023-03-19T05:38:07;8.90;;;8.00;;
9409;SDS011;4744;52.576;13.568;2023-03-19T05:40:35;9.60;;;8.70;;
9409;SDS011;4744;52.576;13.568;2023-03-19T05:43:02;9.75;;;8.43;;
9409;SDS011;4744;52.576;13.568;2023-03-19T05:45:29;13.90;;;11.90;;
9409;SDS011;4744;52.576;13.568;2023-03-19T05:47:55;17.95;;;14.00;;
9409;SDS011;4744;52.576;13.568;2023-03-19T05:50:23;15.50;;;11.85;;
9409;SDS011;4744;52.576;13.568;2023-03-19T05:52:52;11.27;;;10.15;;
9409;SDS011;4744;52.576;13.568;2023-03-19T05:55:19;13.63;;;11.00;;
9409;SDS011;4744;52.576;13.568;2023-03-19T05:57:46;15.23;;;11.45;;
9409;SDS011;4744;52.576;13.568;2023-03-19T06:00:13;14.85;;;10.93;;
9409;SDS011;4744;52.576;13.568;2023-03-19T06:02:40;15.98;;;11.20;;
9409;SDS011;4744;52.576;13.568;2023-03-19T06:05:08;18.58;;;12.60;;
9409;SDS011;4744;52.576;13.568;2023-03-19T06:07:36;14.18;;;11.43;;
9409;SDS011;4744;52.576;13.568;2023-03-19T06:10:05;13.15;;;11.10;;
9409;SDS011;4744;52.576;13.568;2023-03-19T06:12:32;13.15;;;11.02;;
9409;SDS011;4744;52.576;13.568;2023-03-19T06:15:00;14.15;;;11.18;;
9409;SDS011;4744;52.576;13.568;2023-03-19T06:17:27;14.63;;;11.15;;
9409;SDS011;4744;52.576;13.568;2023-03-19T06:19:54;13.88;;;10.35;;
9409;SDS011;4744;52.576;13.568;2023-03-19T06:22:21;11.73;;;10.45;;
9409;SDS011;4744;52.576;13.568;2023-03-19T06:24:47;12.60;;;10.93;;
9409;SDS011;4744;52.576;13.568;2023-03-19T06:27:16;15.10;;;12.85;;
9409;SDS011;4744;52.576;13.568;2023-03-19T06:29:43;14.55;;;12.23;;
9409;SDS011;4744;52.576;13.568;2023-03-19T06:32:10;13.07;;;11.73;;
9409;SDS011;4744;52.576;13.568;2023-03-19T06:34:38;13.35;;;11.43;;
9409;SDS011;4744;52.576;13.568;2023-03-19T06:37:05;14.93;;;11.65;;
9409;SDS011;4744;52.576;13.568;2023-03-19T06:39:32;12.25;;;10.95;;
9409;SDS011;4744;52.576;13.568;2023-03-19T06:41:59;14.98;;;11.77;;
9409;SDS011;4744;52.576;13.568;2023-03-19T06:44:29;13.90;;;11.80;;
9409;SDS011;4744;52.576;13.568;2023-03-19T06:46:56;13.52;;;11.00;;
9409;SDS011;4744;52.576;13.568;2023-03-19T06:49:23;15.63;;;11.38;;
9409;SDS011;4744;52.576;13.568;2023-03-19T06:51:50;13.63;;;10.82;;
9409;SDS011;4744;52.576;13.568;2023-03-19T06:54:16;12.65;;;11.27;;
9409;SDS011;4744;52.576;13.568;2023-03-19T06:56:43;12.38;;;10.32;;
9409;SDS011;4744;52.576;13.568;2023-03-19T06:59:11;13.02;;;10.20;;
9409;SDS011;4744;52.576;13.568;2023-03-19T07:01:40;11.98;;;10.35;;
9409;SDS011;4744;52.576;13.568;2023-03-19T07:04:07;12.93;;;10.23;;
9409;SDS011;4744;52.576;13.568;2023-03-19T07:06:34;11.90;;;10.70;;
9409;SDS011;4744;52.576;13.568;2023-03-19T07:09:01;12.88;;;10.82;;
9409;SDS011;4744;52.576;13.568;2023-03-19T07:11:29;12.80;;;10.48;;
9409;SDS011;4744;52.576;13.568;2023-03-19T07:13:56;11.25;;;10.23;;
9409;SDS011;4744;52.576;13.568;2023-03-19T07:16:23;11.65;;;10.23;;
9409;SDS011;4744;52.576;13.568;2023-03-19T07:18:51;11.93;;;10.52;;
9409;SDS011;4744;52.576;13.568;2023-03-19T07:21:18;11.95;;;10.68;;
9409;SDS011;4744;52.576;13.568;2023-03-19T07:23:45;11.57;;;10.25;;
9409;SDS011;4744;52.576;13.568;2023-03-19T07:26:12;13.57;;;11.65;;
9409;SDS011;4744;52.576;13.568;2023-03-19T07:28:38;12.48;;;10.88;;
9409;SDS011;4744;52.576;13.568;2023-03-19T07:31:05;13.82;;;11.07;;
9409;SDS011;4744;52.576;13.568;2023-03-19T07:33:32;13.80;;;12.02;;
9409;SDS011;4744;52.576;13.568;2023-03-19T07:36:01;12.50;;;11.20;;
9409;SDS011;4744;52.576;13.568;2023-03-19T07:38:27;12.25;;;11.05;;
9409;SDS011;4744;52.576;13.568;2023-03-19T07:40:54;14.25;;;11.75;;
9409;SDS011;4744;52.576;13.568;2023-03-19T07:43:22;12.90;;;11.60;;
9409;SDS011;4744;52.576;13.568;2023-03-19T07:45:48;13.80;;;11.60;;
9409;SDS011;4744;52.576;13.568;2023-03-19T07:48:15;13.15;;;11.55;;
9409;SDS011;4744;52.576;13.568;2023-03-19T07:50:43;13.68;;;12.20;;
9409;SDS011;4744;52.576;13.568;2023-03-19T07:53:11;14.85;;;11.70;;
9409;SDS011;4744;52.576;13.568;2023-03-19T07:55:38;12.88;;;11.15;;
9409;SDS011;4744;52.576;13.568;2023-03-19T07:58:05;13.02;;;11.77;;
9409;SDS011;4744;52.576;13.568;2023-03-19T08:00:31;16.25;;;13.25;;
9409;SDS011;4744;52.576;13.568;2023-03-19T08:02:58;16.17;;;13.68;;
9409;SDS011;4744;52.576;13.568;2023-03-19T08:05:25;16.45;;;14.25;;
9409;SDS011;4744;52.576;13.568;2023-03-19T08:07:52;16.27;;;14.02;;
9409;SDS011;4744;52.576;13.568;2023-03-19T08:10:21;16.63;;;14.90;;
9409;SDS011;4744;52.576;13.568;2023-03-19T08:12:47;14.63;;;13.07;;
9409;SDS011;4744;52.576;13.568;2023-03-19T08:15:15;16.15;;;14.02;;
9409;SDS011;4744;52.576;13.568;2023-03-19T08:17:41;14.98;;;12.35;;
9409;SDS011;4744;52.576;13.568;2023-03-19T08:20:09;15.15;;;12.30;;
9409;SDS011;4744;52.576;13.568;2023-03-19T08:22:38;13.95;;;12.50;;
9409;SDS011;4744;52.576;13.568;2023-03-19T08:25:06;14.35;;;12.00;;
9409;SDS011;4744;52.576;13.568;2023-03-19T08:27:35;12.48;;;11.25;;
9409;SDS011;4744;52.576;13.568;2023-03-19T08:30:02;11.10;;;10.00;;
9409;SDS011;4744;52.576;13.568;2023-03-19T08:32:31;11.25;;;9.90;;
9409;SDS011;4744;52.576;13.568;2023-03-19T08:34:58;11.57;;;9.38;;
9409;SDS011;4744;52.576;13.568;2023-03-19T08:37:25;10.30;;;9.35;;
9409;SDS011;4744;52.576;13.568;2023-03-19T08:39:52;10.23;;;9.25;;
9409;SDS011;4744;52.576;13.568;2023-03-19T08:42:19;10.52;;;8.85;;
9409;SDS011;4744;52.576;13.568;2023-03-19T08:44:48;10.68;;;8.35;;
9409;SDS011;4744;52.576;13.568;2023-03-19T08:47:15;9.43;;;8.38;;
9409;SDS011;4744;52.576;13.568;2023-03-19T08:49:42;7.97;;;7.28;;
9409;SDS011;4744;52.576;13.568;2023-03-19T08:52:08;9.20;;;8.15;;
9409;SDS011;4744;52.576;13.568;2023-03-19T08:54:35;11.00;;;8.95;;
9409;SDS011;4744;52.576;13.568;2023-03-19T08:57:02;9.48;;;8.57;;
9409;SDS011;4744;52.576;13.568;2023-03-19T08:59:30;10.38;;;9.18;;
9409;SDS011;4744;52.576;13.568;2023-03-19T09:01:58;10.73;;;9.60;;
9409;SDS011;4744;52.576;13.568;2023-03-19T09:04:25;14.38;;;10.10;;
9409;SDS011;4744;52.576;13.568;2023-03-19T09:06:52;12.30;;;11.00;;
9409;SDS011;4744;52.576;13.568;2023-03-19T09:09:20;10.63;;;9.38;;
9409;SDS011;4744;52.576;13.568;2023-03-19T09:11:48;10.88;;;9.48;;
9409;SDS011;4744;52.576;13.568;2023-03-19T09:14:15;10.93;;;9.98;;
9409;SDS011;4744;52.576;13.568;2023-03-19T09:16:44;10.63;;;9.50;;
9409;SDS011;4744;52.576;13.568;2023-03-19T09:19:12;11.85;;;9.95;;
9409;SDS011;4744;52.576;13.568;2023-03-19T09:21:39;11.15;;;9.98;;
9409;SDS011;4744;52.576;13.568;2023-03-19T09:24:06;11.63;;;10.43;;
9409;SDS011;4744;52.576;13.568;2023-03-19T09:26:33;12.52;;;10.68;;
9409;SDS011;4744;52.576;13.568;2023-03-19T09:29:00;10.88;;;9.75;;
9409;SDS011;4744;52.576;13.568;2023-03-19T09:31:29;12.55;;;10.45;;
9409;SDS011;4744;52.576;13.568;2023-03-19T09:33:56;12.75;;;11.45;;
9409;SDS011;4744;52.576;13.568;2023-03-19T09:36:24;12.60;;;11.30;;
9409;SDS011;4744;52.576;13.568;2023-03-19T09:38:51;12.73;;;11.43;;
9409;SDS011;4744;52.576;13.568;2023-03-19T09:41:21;12.48;;;11.13;;
9409;SDS011;4744;52.576;13.568;2023-03-19T09:43:58;12.98;;;11.50;;
9409;SDS011;4744;52.576;13.568;2023-03-19T09:46:28;13.32;;;12.00;;
9409;SDS011;4744;52.576;13.568;2023-03-19T09:49:03;13.07;;;11.70;;
9409;SDS011;4744;52.576;13.568;2023-03-19T09:51:40;13.32;;;11.90;;
9409;SDS011;4744;52.576;13.568;2023-03-19T09:54:24;13.07;;;11.77;;
9409;SDS011;4744;52.576;13.568;2023-03-19T09:56:54;12.77;;;11.48;;
9409;SDS011;4744;52.576;13.568;2023-03-19T09:59:21;12.45;;;11.20;;
9409;SDS011;4744;52.576;13.568;2023-03-19T10:01:52;13.48;;;12.10;;
9409;SDS011;4744;52.576;13.568;2023-03-19T10:04:36;13.15;;;11.85;;
9409;SDS011;4744;52.576;13.568;2023-03-19T10:07:12;14.85;;;11.43;;
9409;SDS011;4744;52.576;13.568;2023-03-19T10:10:02;12.55;;;11.25;;
9409;SDS011;4744;52.576;13.568;2023-03-19T10:12:48;12.73;;;11.38;;
9409;SDS011;4744;52.576;13.568;2023-03-19T10:15:23;13.13;;;11.38;;
9409;SDS011;4744;52.576;13.568;2023-03-19T10:17:55;11.88;;;10.57;;
9409;SDS011;4744;52.576;13.568;2023-03-19T10:20:29;11.93;;;10.55;;
9409;SDS011;4744;52.576;13.568;2023-03-19T10:23:09;11.82;;;10.23;;
9409;SDS011;4744;52.576;13.568;2023-03-19T10:25:51;11.27;;;10.18;;
9409;SDS011;4744;52.576;13.568;2023-03-19T10:28:20;11.18;;;10.10;;
9409;SDS011;4744;52.576;13.568;2023-03-19T10:30:50;12.20;;;11.00;;
9409;SDS011;4744;52.576;13.568;2023-03-19T10:33:21;11.98;;;10.20;;
9409;SDS011;4744;52.576;13.568;2023-03-19T10:35:52;12.60;;;10.30;;
9409;SDS011;4744;52.576;13.568;2023-03-19T10:38:25;10.85;;;9.85;;
9409;SDS011;4744;52.576;13.568;2023-03-19T10:41:07;11.13;;;9.57;;
9409;SDS011;4744;52.576;13.568;2023-03-19T10:43:44;10.77;;;9.68;;
9409;SDS011;4744;52.576;13.568;2023-03-19T10:46:17;10.32;;;9.27;;
9409;SDS011;4744;52.576;13.568;2023-03-19T10:48:45;10.73;;;9.35;;
9409;SDS011;4744;52.576;13.568;2023-03-19T10:51:13;9.60;;;8.80;;
9409;SDS011;4744;52.576;13.568;2023-03-19T10:53:43;9.65;;;8.73;;
9409;SDS011;4744;52.576;13.568;2023-03-19T10:56:16;9.70;;;8.70;;
9409;SDS011;4744;52.576;13.568;2023-03-19T10:58:54;10.13;;;9.10;;
9409;SDS011;4744;52.576;13.568;2023-03-19T11:01:25;9.27;;;8.27;;
9409;SDS011;4744;52.576;13.568;2023-03-19T11:03:56;9.48;;;8.48;;
9409;SDS011;4744;52.576;13.568;2023-03-19T11:06:25;10.13;;;9.07;;
9409;SDS011;4744;52.576;13.568;2023-03-19T11:08:58;9.50;;;8.55;;
9409;SDS011;4744;52.576;13.568;2023-03-19T11:11:31;8.93;;;8.15;;
9409;SDS011;4744;52.576;13.568;2023-03-19T11:14:07;9.25;;;7.97;;
9409;SDS011;4744;52.576;13.568;2023-03-19T11:16:48;9.10;;;8.20;;
9409;SDS011;4744;52.576;13.568;2023-03-19T11:19:20;9.30;;;8.23;;
9409;SDS011;4744;52.576;13.568;2023-03-19T11:21:52;9.10;;;8.20;;
9409;SDS011;4744;52.576;13.568;2023-03-19T11:24:31;8.48;;;7.45;;
9409;SDS011;4744;52.576;13.568;2023-03-19T11:26:59;9.25;;;7.82;;
9409;SDS011;4744;52.576;13.568;2023-03-19T11:29:27;8.15;;;7.43;;
9409;SDS011;4744;52.576;13.568;2023-03-19T11:31:57;8.00;;;7.20;;
9409;SDS011;4744;52.576;13.568;2023-03-19T11:34:35;7.82;;;7.13;;
9409;SDS011;4744;52.576;13.568;2023-03-19T11:37:10;7.97;;;6.93;;
9409;SDS011;4744;52.576;13.568;2023-03-19T11:39:50;8.50;;;7.63;;
9409;SDS011;4744;52.576;13.568;2023-03-19T11:42:27;8.35;;;7.30;;
9409;SDS011;4744;52.576;13.568;2023-03-19T11:45:11;7.68;;;6.80;;
9409;SDS011;4744;52.576;13.568;2023-03-19T11:47:48;7.47;;;6.78;;
9409;SDS011;4744;52.576;13.568;2023-03-19T11:50:24;7.78;;;6.97;;
9409;SDS011;4744;52.576;13.568;2023-03-19T11:52:57;8.07;;;7.20;;
9409;SDS011;4744;52.576;13.568;2023-03-19T11:55:32;7.22;;;6.63;;
9409;SDS011;4744;52.576;13.568;2023-03-19T11:58:22;7.75;;;7.05;;
9409;SDS011;4744;52.576;13.568;2023-03-19T12:01:12;7.25;;;6.65;;
9409;SDS011;4744;52.576;13.568;2023-03-19T12:06:49;7.72;;;6.90;;
9409;SDS011;4744;52.576;13.568;2023-03-19T12:09:26;7.30;;;6.60;;
9409;SDS011;4744;52.576;13.568;2023-03-19T12:12:04;8.18;;;7.05;;
9409;SDS011;4744;52.576;13.568;2023-03-19T12:14:41;8.13;;;7.32;;
9409;SDS011;4744;52.576;13.568;2023-03-19T12:17:28;7.70;;;7.00;;
9409;SDS011;4744;52.576;13.568;2023-03-19T12:20:14;7.43;;;6.70;;
9409;SDS011;4744;52.576;13.568;2023-03-19T12:22:52;8.90;;;8.00;;
9409;SDS011;4744;52.576;13.568;2023-03-19T12:25:36;7.95;;;7.10;;
9409;SDS011;4744;52.576;13.568;2023-03-19T12:28:17;7.35;;;6.20;;
9409;SDS011;4744;52.576;13.568;2023-03-19T12:30:59;7.72;;;7.00;;
9409;SDS011;4744;52.576;13.568;2023-03-19T12:33:40;6.72;;;6.13;;
9409;SDS011;4744;52.576;13.568;2023-03-19T12:36:14;8.02;;;7.20;;
9409;SDS011;4744;52.576;13.568;2023-03-19T12:38:45;6.10;;;5.50;;
9409;SDS011;4744;52.576;13.568;2023-03-19T12:41:17;7.75;;;7.00;;
9409;SDS011;4744;52.576;13.568;2023-03-19T12:43:50;6.95;;;6.35;;
9409;SDS011;4744;52.576;13.568;2023-03-19T12:46:22;8.23;;;7.25;;
9409;SDS011;4744;52.576;13.568;2023-03-19T12:48:55;6.50;;;5.93;;
9409;SDS011;4744;52.576;13.568;2023-03-19T12:51:26;5.88;;;5.38;;
9409;SDS011;4744;52.576;13.568;2023-03-19T12:53:58;6.20;;;5.60;;
9409;SDS011;4744;52.576;13.568;2023-03-19T12:56:31;7.55;;;6.88;;
9409;SDS011;4744;52.576;13.568;2023-03-19T12:59:07;7.57;;;6.88;;
9409;SDS011;4744;52.576;13.568;2023-03-19T13:01:42;7.40;;;6.65;;
9409;SDS011;4744;52.576;13.568;2023-03-19T13:04:12;6.63;;;6.03;;
9409;SDS011;4744;52.576;13.568;2023-03-19T13:06:46;5.60;;;5.10;;
9409;SDS011;4744;52.576;13.568;2023-03-19T13:09:21;6.72;;;5.25;;
9409;SDS011;4744;52.576;13.568;2023-03-19T13:11:57;6.13;;;5.63;;
9409;SDS011;4744;52.576;13.568;2023-03-19T13:14:30;7.20;;;6.60;;
9409;SDS011;4744;52.576;13.568;2023-03-19T13:17:05;7.20;;;6.50;;
9409;SDS011;4744;52.576;13.568;2023-03-19T13:19:39;5.72;;;5.22;;
9409;SDS011;4744;52.576;13.568;2023-03-19T13:22:11;6.35;;;5.55;;
9409;SDS011;4744;52.576;13.568;2023-03-19T13:24:41;7.28;;;6.50;;
9409;SDS011;4744;52.576;13.568;2023-03-19T13:27:20;6.07;;;5.47;;
9409;SDS011;4744;52.576;13.568;2023-03-19T13:30:06;6.25;;;5.43;;
9409;SDS011;4744;52.576;13.568;2023-03-19T13:32:43;5.53;;;5.13;;
9409;SDS011;4744;52.576;13.568;2023-03-19T13:35:18;6.70;;;6.10;;
9409;SDS011;4744;52.576;13.568;2023-03-19T13:38:05;6.53;;;5.70;;
9409;SDS011;4744;52.576;13.568;2023-03-19T13:40:41;5.57;;;5.07;;
9409;SDS011;4744;52.576;13.568;2023-03-19T13:43:23;6.07;;;5.50;;
9409;SDS011;4744;52.576;13.568;2023-03-19T13:46:29;6.20;;;5.60;;
9409;SDS011;4744;52.576;13.568;2023-03-19T13:49:21;6.45;;;5.85;;
9409;SDS011;4744;52.576;13.568;2023-03-19T13:51:53;6.43;;;5.82;;
9409;SDS011;4744;52.576;13.568;2023-03-19T13:54:31;6.13;;;5.50;;
9409;SDS011;4744;52.576;13.568;2023-03-19T13:59:47;6.60;;;5.97;;
9409;SDS011;4744;52.576;13.568;2023-03-19T14:05:17;7.85;;;6.05;;
9409;SDS011;4744;52.576;13.568;2023-03-19T14:07:50;6.30;;;5.72;;
9409;SDS011;4744;52.576;13.568;2023-03-19T14:10:21;5.80;;;5.30;;
9409;SDS011;4744;52.576;13.568;2023-03-19T14:12:51;5.63;;;5.13;;
9409;SDS011;4744;52.576;13.568;2023-03-19T14:15:27;5.10;;;4.60;;
9409;SDS011;4744;52.576;13.568;2023-03-19T14:17:58;4.63;;;4.22;;
9409;SDS011;4744;52.576;13.568;2023-03-19T14:20:27;5.43;;;4.93;;
9409;SDS011;4744;52.576;13.568;2023-03-19T14:23:10;5.13;;;4.72;;
9409;SDS011;4744;52.576;13.568;2023-03-19T14:25:53;5.57;;;5.07;;
9409;SDS011;4744;52.576;13.568;2023-03-19T14:28:32;6.13;;;5.22;;
9409;SDS011;4744;52.576;13.568;2023-03-19T14:31:03;5.70;;;5.07;;
9409;SDS011;4744;52.576;13.568;2023-03-19T14:33:42;6.32;;;5.20;;
9409;SDS011;4744;52.576;13.568;2023-03-19T14:36:11;4.68;;;4.25;;
9409;SDS011;4744;52.576;13.568;2023-03-19T14:38:44;4.60;;;4.20;;
9409;SDS011;4744;52.576;13.568;2023-03-19T14:41:16;4.13;;;3.83;;
9409;SDS011;4744;52.576;13.568;2023-03-19T14:43:51;4.30;;;3.90;;
9409;SDS011;4744;52.576;13.568;2023-03-19T14:46:38;3.72;;;3.42;;
9409;SDS011;4744;52.576;13.568;2023-03-19T14:52:15;5.05;;;4.60;;
9409;SDS011;4744;52.576;13.568;2023-03-19T14:54:47;4.20;;;3.90;;
9409;SDS011;4744;52.576;13.568;2023-03-19T14:57:19;3.60;;;3.30;;
9409;SDS011;4744;52.576;13.568;2023-03-19T14:59:50;4.15;;;3.75;;
9409;SDS011;4744;52.576;13.568;2023-03-19T15:02:20;4.30;;;3.90;;
9409;SDS011;4744;52.576;13.568;2023-03-19T15:05:00;3.90;;;3.60;;
9409;SDS011;4744;52.576;13.568;2023-03-19T15:07:31;3.00;;;2.80;;
9409;SDS011;4744;52.576;13.568;2023-03-19T15:10:03;5.15;;;4.68;;
9409;SDS011;4744;52.576;13.568;2023-03-19T15:15:26;4.05;;;3.70;;
9409;SDS011;4744;52.576;13.568;2023-03-19T15:18:00;5.13;;;4.40;;
9409;SDS011;4744;52.576;13.568;2023-03-19T15:20:32;5.07;;;4.53;;
9409;SDS011;4744;52.576;13.568;2023-03-19T15:23:02;3.72;;;3.42;;
9409;SDS011;4744;52.576;13.568;2023-03-19T15:25:33;3.15;;;2.95;;
9409;SDS011;4744;52.576;13.568;2023-03-19T15:28:04;3.90;;;3.60;;